createdAt,value
2017-12-10T00:00:46.738Z,66.50
2017-12-10T00:03:14.901Z,65.50
2017-12-10T00:05:43.069Z,66.00
2017-12-10T00:08:11.208Z,65.40
2017-12-10T00:10:39.316Z,66.00
2017-12-10T00:13:07.450Z,66.00
2017-12-10T00:15:35.584Z,66.00
2017-12-10T00:18:03.706Z,66.80
2017-12-10T00:20:31.852Z,66.80
2017-12-10T00:23:00.744Z,67.40
2017-12-10T00:25:28.863Z,67.10
2017-12-10T00:27:56.980Z,66.80
2017-12-10T00:30:25.909Z,67.30
2017-12-10T00:32:54.036Z,67.50
2017-12-10T00:35:23.149Z,67.20
2017-12-10T00:37:52.024Z,67.20
2017-12-10T00:40:20.132Z,67.00
2017-12-10T00:42:48.240Z,67.10
2017-12-10T00:45:16.366Z,67.40
2017-12-10T00:47:44.549Z,67.00
2017-12-10T00:50:12.695Z,67.30
2017-12-10T00:52:41.600Z,66.70
2017-12-10T00:55:09.745Z,66.70
2017-12-10T00:57:37.859Z,67.20
2017-12-10T01:00:05.965Z,66.70
2017-12-10T01:02:34.322Z,67.10
2017-12-10T01:05:02.450Z,66.60
2017-12-10T01:07:30.659Z,66.70
2017-12-10T01:09:58.833Z,66.70
2017-12-10T01:12:27.378Z,66.80
2017-12-10T01:14:55.501Z,66.50
2017-12-10T01:17:23.636Z,66.70
2017-12-10T01:19:52.519Z,66.10
2017-12-10T01:22:21.404Z,66.00
2017-12-10T01:24:49.545Z,65.90
2017-12-10T01:27:17.657Z,65.80
2017-12-10T01:29:46.562Z,67.60
2017-12-10T01:32:15.446Z,68.60
2017-12-10T01:34:45.266Z,69.20
2017-12-10T01:37:14.135Z,68.60
2017-12-10T01:39:42.292Z,68.50
2017-12-10T01:42:10.408Z,68.60
2017-12-10T01:44:38.576Z,68.10
2017-12-10T01:47:07.470Z,67.50
2017-12-10T01:49:36.440Z,67.70
2017-12-10T01:52:05.336Z,67.30
2017-12-10T01:54:33.446Z,67.20
2017-12-10T01:57:01.585Z,67.50
2017-12-10T01:59:29.974Z,67.10
2017-12-10T02:01:58.121Z,67.20
2017-12-10T02:04:26.229Z,66.70
2017-12-10T02:06:54.342Z,67.00
2017-12-10T02:09:22.461Z,66.50
2017-12-10T02:11:51.388Z,66.50
2017-12-10T02:14:19.524Z,66.50
2017-12-10T02:16:48.411Z,66.70
2017-12-10T02:19:17.393Z,66.60
2017-12-10T02:21:45.515Z,66.90
2017-12-10T02:24:13.634Z,67.20
2017-12-10T02:26:41.742Z,67.20
2017-12-10T02:29:09.857Z,66.80
2017-12-10T02:31:37.980Z,66.90
2017-12-10T02:34:06.873Z,66.90
2017-12-10T02:36:35.792Z,67.30
2017-12-10T02:39:03.932Z,66.10
2017-12-10T02:41:32.834Z,67.10
2017-12-10T02:44:01.721Z,67.10
2017-12-10T02:46:30.636Z,66.90
2017-12-10T02:48:58.763Z,67.10
2017-12-10T02:51:26.878Z,66.70
2017-12-10T02:53:55.002Z,68.10
2017-12-10T02:56:23.228Z,67.20
2017-12-10T02:58:51.350Z,67.60
2017-12-10T03:01:19.466Z,67.10
2017-12-10T03:03:47.615Z,67.60
2017-12-10T03:06:16.513Z,67.00
2017-12-10T03:08:45.533Z,67.20
2017-12-10T03:11:13.641Z,67.10
2017-12-10T03:13:41.775Z,66.80
2017-12-10T03:16:09.885Z,66.50
2017-12-10T03:18:37.993Z,66.20
2017-12-10T03:21:06.891Z,66.50
2017-12-10T03:23:35.858Z,66.40
2017-12-10T03:26:04.033Z,66.20
2017-12-10T03:28:32.151Z,66.20
2017-12-10T03:31:00.272Z,66.50
2017-12-10T03:33:28.415Z,66.10
2017-12-10T03:35:56.532Z,66.30
2017-12-10T03:38:24.671Z,66.30
2017-12-10T03:40:52.780Z,66.10
2017-12-10T03:43:20.913Z,66.40
2017-12-10T03:45:49.062Z,66.60
2017-12-10T03:48:17.190Z,66.40
2017-12-10T03:50:45.412Z,66.20
2017-12-10T03:53:13.512Z,66.50
2017-12-10T03:55:41.657Z,66.30
2017-12-10T03:58:09.791Z,66.30
2017-12-10T04:00:37.933Z,66.20
2017-12-10T04:03:06.103Z,66.20
2017-12-10T04:05:34.258Z,65.80
2017-12-10T04:08:02.386Z,65.90
2017-12-10T04:10:30.555Z,66.40
2017-12-10T04:12:58.672Z,66.20
2017-12-10T04:15:26.801Z,66.40
2017-12-10T04:17:54.918Z,66.60
2017-12-10T04:20:23.025Z,66.10
2017-12-10T04:22:51.184Z,66.60
2017-12-10T04:25:19.542Z,66.30
2017-12-10T04:27:47.678Z,66.30
2017-12-10T04:30:15.814Z,66.20
2017-12-10T04:32:43.924Z,66.10
2017-12-10T04:35:12.855Z,66.50
2017-12-10T04:37:40.953Z,66.60
2017-12-10T04:40:09.095Z,66.60
2017-12-10T04:42:37.208Z,66.90
2017-12-10T04:45:05.348Z,66.60
2017-12-10T04:47:33.468Z,66.70
2017-12-10T04:50:01.595Z,66.10
2017-12-10T04:52:29.721Z,66.40
2017-12-10T04:54:57.832Z,65.80
2017-12-10T04:57:25.957Z,66.30
2017-12-10T04:59:54.112Z,66.10
2017-12-10T05:02:22.470Z,66.60
2017-12-10T05:04:50.609Z,65.70
2017-12-10T05:07:18.740Z,65.60
2017-12-10T05:09:46.859Z,65.90
2017-12-10T05:12:14.996Z,65.30
2017-12-10T05:14:43.106Z,65.60
2017-12-10T05:17:12.017Z,65.50
2017-12-10T05:19:40.128Z,65.40
2017-12-10T05:22:08.266Z,66.10
2017-12-10T05:24:36.386Z,66.50
2017-12-10T05:27:04.546Z,65.80
2017-12-10T05:29:32.673Z,66.00
2017-12-10T05:32:01.545Z,66.10
2017-12-10T05:34:30.420Z,66.40
2017-12-10T05:36:58.585Z,66.40
2017-12-10T05:39:26.686Z,66.30
2017-12-10T05:41:55.589Z,67.10
2017-12-10T05:44:24.513Z,66.90
2017-12-10T05:46:52.624Z,66.90
2017-12-10T05:49:20.761Z,66.80
2017-12-10T05:51:48.884Z,67.50
2017-12-10T05:54:17.013Z,67.70
2017-12-10T05:56:45.132Z,67.40
2017-12-10T05:59:14.014Z,67.80
2017-12-10T06:01:42.141Z,68.00
2017-12-10T06:04:10.258Z,68.10
2017-12-10T06:06:38.388Z,67.80
2017-12-10T06:09:06.507Z,68.30
2017-12-10T06:11:34.611Z,68.40
2017-12-10T06:14:02.791Z,68.30
2017-12-10T06:16:30.900Z,68.00
2017-12-10T06:18:59.039Z,68.00
2017-12-10T06:21:27.214Z,68.00
2017-12-10T06:23:55.315Z,68.30
2017-12-10T06:26:23.451Z,68.40
2017-12-10T06:28:51.575Z,68.20
2017-12-10T06:31:19.716Z,67.90
2017-12-10T06:33:47.844Z,68.10
2017-12-10T06:36:15.964Z,68.40
2017-12-10T06:38:44.852Z,68.10
2017-12-10T06:41:13.030Z,68.00
2017-12-10T06:43:41.189Z,68.40
2017-12-10T06:46:09.293Z,68.20
2017-12-10T06:48:37.404Z,67.90
2017-12-10T06:51:06.288Z,68.40
2017-12-10T06:53:34.398Z,68.30
2017-12-10T06:56:02.541Z,68.10
2017-12-10T06:58:31.416Z,68.70
2017-12-10T07:00:59.527Z,68.60
2017-12-10T07:03:27.681Z,68.40
2017-12-10T07:05:56.576Z,68.30
2017-12-10T07:08:25.472Z,68.10
2017-12-10T07:10:54.373Z,68.10
2017-12-10T07:13:22.476Z,68.00
2017-12-10T07:15:50.601Z,67.90
2017-12-10T07:18:19.488Z,68.40
2017-12-10T07:20:48.413Z,68.10
2017-12-10T07:23:16.517Z,68.20
2017-12-10T07:25:44.668Z,68.10
2017-12-10T07:28:12.789Z,68.40
2017-12-10T07:30:40.917Z,68.10
2017-12-10T07:33:09.077Z,67.90
2017-12-10T07:35:37.258Z,67.60
2017-12-10T07:38:05.337Z,68.20
2017-12-10T07:40:33.498Z,68.30
2017-12-10T07:43:01.633Z,69.10
2017-12-10T07:45:29.752Z,68.60
2017-12-10T07:47:57.869Z,69.00
2017-12-10T07:50:26.003Z,68.70
2017-12-10T07:52:54.105Z,69.20
2017-12-10T07:55:22.215Z,68.60
2017-12-10T07:57:51.104Z,68.40
2017-12-10T08:00:19.224Z,68.40
2017-12-10T08:02:47.411Z,68.30
2017-12-10T08:05:15.534Z,68.30
2017-12-10T08:07:43.652Z,68.10
2017-12-10T08:10:11.798Z,68.10
2017-12-10T08:12:40.726Z,68.00
2017-12-10T08:15:08.921Z,67.50
2017-12-10T08:17:37.050Z,67.50
2017-12-10T08:20:05.153Z,68.00
2017-12-10T08:22:33.277Z,67.60
2017-12-10T08:25:01.401Z,67.80
2017-12-10T08:27:29.533Z,67.80
2017-12-10T08:29:57.658Z,68.00
2017-12-10T08:32:25.767Z,68.30
2017-12-10T08:34:53.929Z,68.00
2017-12-10T08:37:22.814Z,68.30
2017-12-10T08:39:51.740Z,67.90
2017-12-10T08:42:19.863Z,67.90
2017-12-10T08:44:47.982Z,67.50
2017-12-10T08:47:16.872Z,67.00
2017-12-10T08:49:44.986Z,67.00
2017-12-10T08:52:13.134Z,66.80
2017-12-10T08:54:41.233Z,66.80
2017-12-10T08:57:09.346Z,66.50
2017-12-10T08:59:37.476Z,66.20
2017-12-10T09:02:05.598Z,66.70
2017-12-10T09:04:33.730Z,66.60
2017-12-10T09:07:01.853Z,66.60
2017-12-10T09:09:29.969Z,67.00
2017-12-10T09:11:58.100Z,67.80
2017-12-10T09:14:26.221Z,68.10
2017-12-10T09:16:55.272Z,67.90
2017-12-10T09:19:23.390Z,67.40
2017-12-10T09:21:52.376Z,68.00
2017-12-10T09:24:20.490Z,67.70
2017-12-10T09:26:48.617Z,67.70
2017-12-10T09:29:16.764Z,67.20
2017-12-10T09:31:44.879Z,67.80
2017-12-10T09:34:13.007Z,67.40
2017-12-10T09:36:41.136Z,67.30
2017-12-10T09:39:10.013Z,67.70
2017-12-10T09:41:38.195Z,67.70
2017-12-10T09:44:07.021Z,69.90
2017-12-10T09:46:35.145Z,69.80
2017-12-10T09:49:03.273Z,71.20
2017-12-10T09:51:31.383Z,72.40
2017-12-10T09:53:59.520Z,74.60
2017-12-10T09:56:27.637Z,76.00
2017-12-10T09:58:55.774Z,75.50
2017-12-10T10:01:23.911Z,78.40
2017-12-10T10:03:52.780Z,80.20
2017-12-10T10:06:20.916Z,80.00
2017-12-10T10:08:49.025Z,80.80
2017-12-10T10:11:17.158Z,81.60
2017-12-10T10:13:45.301Z,82.60
2017-12-10T10:16:13.438Z,82.50
2017-12-10T10:18:41.580Z,83.10
2017-12-10T10:21:09.708Z,83.10
2017-12-10T10:23:38.601Z,83.60
2017-12-10T10:26:07.549Z,83.60
2017-12-10T10:28:35.662Z,83.60
2017-12-10T10:31:04.564Z,83.40
2017-12-10T10:33:32.678Z,83.30
2017-12-10T10:36:02.741Z,83.30
2017-12-10T10:38:31.746Z,83.20
2017-12-10T10:41:00.766Z,84.00
2017-12-10T10:43:28.955Z,84.00
2017-12-10T10:45:57.164Z,83.80
2017-12-10T10:48:25.380Z,84.50
2017-12-10T10:50:53.580Z,84.60
2017-12-10T10:53:21.727Z,84.60
2017-12-10T10:55:49.928Z,85.00
2017-12-10T10:58:18.042Z,84.70
2017-12-10T11:00:46.293Z,84.70
2017-12-10T11:03:14.497Z,84.50
2017-12-10T11:05:43.391Z,84.30
2017-12-10T11:08:11.577Z,84.30
2017-12-10T11:10:40.602Z,83.50
2017-12-10T11:13:08.761Z,84.00
2017-12-10T11:15:36.921Z,84.60
2017-12-10T11:18:05.852Z,84.10
2017-12-10T11:20:34.017Z,84.00
2017-12-10T11:23:02.195Z,84.30
2017-12-10T11:25:30.313Z,84.20
2017-12-10T11:27:58.696Z,84.60
2017-12-10T11:30:26.807Z,84.50
2017-12-10T11:32:54.937Z,85.10
2017-12-10T11:35:23.046Z,89.70
2017-12-10T11:37:51.209Z,89.60
2017-12-10T11:40:19.499Z,90.00
2017-12-10T11:42:48.369Z,90.10
2017-12-10T11:45:17.353Z,89.20
2017-12-10T11:47:46.327Z,85.90
2017-12-10T11:50:14.655Z,85.70
2017-12-10T11:52:42.852Z,85.30
2017-12-10T11:55:11.166Z,85.70
2017-12-10T11:57:39.345Z,86.00
2017-12-10T12:00:07.558Z,86.20
2017-12-10T12:02:35.705Z,86.00
2017-12-10T12:05:04.637Z,85.60
2017-12-10T12:07:32.794Z,85.60
2017-12-10T12:10:00.953Z,86.20
2017-12-10T12:12:29.881Z,86.40
2017-12-10T12:14:58.014Z,86.40
2017-12-10T12:17:26.910Z,86.60
2017-12-10T12:19:55.016Z,86.60
2017-12-10T12:22:23.188Z,86.60
2017-12-10T12:24:51.426Z,87.00
2017-12-10T12:27:19.509Z,86.60
2017-12-10T12:29:47.686Z,87.10
2017-12-10T12:32:15.849Z,87.10
2017-12-10T12:34:44.820Z,87.60
2017-12-10T12:37:12.953Z,87.70
2017-12-10T12:39:41.082Z,87.00
2017-12-10T12:42:10.003Z,87.60
2017-12-10T12:44:38.121Z,87.50
2017-12-10T12:47:06.320Z,87.30
2017-12-10T12:49:35.187Z,87.50
2017-12-10T12:52:03.359Z,87.50
2017-12-10T12:54:31.477Z,87.90
2017-12-10T12:57:00.026Z,87.50
2017-12-10T12:59:28.211Z,88.20
2017-12-10T13:01:56.364Z,87.70
2017-12-10T13:04:24.521Z,88.50
2017-12-10T13:06:52.651Z,88.50
2017-12-10T13:09:21.101Z,88.40
2017-12-10T13:11:49.237Z,87.50
2017-12-10T13:14:17.356Z,87.50
2017-12-10T13:16:46.232Z,86.50
2017-12-10T13:19:15.248Z,86.60
2017-12-10T13:21:44.115Z,86.60
2017-12-10T13:24:12.260Z,86.60
2017-12-10T13:26:40.383Z,86.00
2017-12-10T13:29:09.250Z,84.80
2017-12-10T13:31:37.390Z,84.70
2017-12-10T13:34:05.505Z,85.00
2017-12-10T13:36:33.640Z,85.00
2017-12-10T13:39:05.193Z,83.80
2017-12-10T13:41:33.360Z,83.70
2017-12-10T13:44:03.246Z,83.00
2017-12-10T13:46:32.134Z,83.00
2017-12-10T13:49:01.065Z,83.00
2017-12-10T13:51:29.194Z,83.20
2017-12-10T13:53:59.074Z,83.00
2017-12-10T13:56:27.196Z,82.90
2017-12-10T13:58:55.342Z,82.70
2017-12-10T14:01:23.508Z,82.20
2017-12-10T14:03:51.650Z,83.00
2017-12-10T14:06:19.804Z,81.50
2017-12-10T14:08:47.925Z,81.50
2017-12-10T14:11:16.065Z,82.40
2017-12-10T14:13:44.210Z,82.70
2017-12-10T14:16:12.363Z,83.00
2017-12-10T14:18:41.744Z,82.80
2017-12-10T14:21:09.868Z,82.90
2017-12-10T14:23:38.043Z,82.40
2017-12-10T14:26:06.234Z,82.10
2017-12-10T14:28:34.350Z,82.70
2017-12-10T14:31:02.534Z,83.30
2017-12-10T14:33:31.411Z,83.10
2017-12-10T14:35:59.526Z,83.10
2017-12-10T14:38:27.644Z,83.50
2017-12-10T14:40:55.779Z,83.30
2017-12-10T14:43:23.979Z,83.20
2017-12-10T14:45:52.114Z,83.00
2017-12-10T14:48:20.266Z,82.90
2017-12-10T14:50:49.197Z,82.70
2017-12-10T14:53:17.345Z,82.70
2017-12-10T14:55:46.281Z,82.50
2017-12-10T14:58:14.438Z,82.20
2017-12-10T15:00:42.589Z,82.00
2017-12-10T15:03:11.569Z,82.90
2017-12-10T15:05:39.677Z,82.90
2017-12-10T15:08:07.834Z,82.80
2017-12-10T15:10:35.999Z,83.10
2017-12-10T15:13:04.924Z,83.30
2017-12-10T15:15:33.116Z,83.00
2017-12-10T15:18:01.248Z,82.30
2017-12-10T15:20:29.424Z,83.40
2017-12-10T15:22:57.557Z,83.60
2017-12-10T15:25:25.713Z,83.80
2017-12-10T15:27:53.959Z,83.70
2017-12-10T15:30:22.126Z,83.70
2017-12-10T15:32:50.310Z,83.80
2017-12-10T15:35:18.477Z,83.50
2017-12-10T15:37:46.656Z,84.20
2017-12-10T15:40:16.096Z,83.90
2017-12-10T15:42:44.279Z,84.00
2017-12-10T15:45:12.423Z,84.20
2017-12-10T15:47:40.628Z,83.90
2017-12-10T15:50:08.763Z,83.60
2017-12-10T15:52:36.945Z,82.40
2017-12-10T15:55:05.091Z,82.30
2017-12-10T15:57:33.983Z,83.10
2017-12-10T16:00:02.125Z,82.90
2017-12-10T16:02:30.268Z,82.60
2017-12-10T16:04:58.438Z,82.40
2017-12-10T16:07:26.730Z,81.40
2017-12-10T16:09:54.854Z,80.90
2017-12-10T16:12:22.993Z,79.70
2017-12-10T16:14:51.118Z,78.30
2017-12-10T16:17:19.510Z,78.90
2017-12-10T16:19:47.715Z,78.90
2017-12-10T16:22:15.845Z,78.70
2017-12-10T16:24:45.193Z,78.60
2017-12-10T16:27:14.106Z,78.30
2017-12-10T16:29:42.986Z,77.80
2017-12-10T16:32:11.910Z,77.20
2017-12-10T16:34:40.032Z,77.10
2017-12-10T16:37:08.244Z,77.90
2017-12-10T16:39:37.194Z,76.80
2017-12-10T16:42:05.387Z,76.60
2017-12-10T16:44:33.577Z,75.50
2017-12-10T16:47:02.485Z,75.60
2017-12-10T16:49:30.640Z,75.00
2017-12-10T16:51:59.554Z,73.60
2017-12-10T16:54:27.685Z,73.50
2017-12-10T16:56:55.844Z,73.20
2017-12-10T16:59:24.013Z,73.30
2017-12-10T17:01:52.255Z,73.00
2017-12-10T17:04:20.394Z,73.30
2017-12-10T17:06:48.502Z,73.10
2017-12-10T17:09:16.657Z,73.10
2017-12-10T17:11:45.557Z,72.70
2017-12-10T17:14:13.711Z,72.80
2017-12-10T17:16:42.629Z,73.00
2017-12-10T17:19:10.765Z,72.90
2017-12-10T17:21:38.969Z,73.00
2017-12-10T17:24:07.857Z,73.50
2017-12-10T17:26:36.097Z,73.20
2017-12-10T17:29:04.321Z,73.50
2017-12-10T17:31:32.430Z,73.20
2017-12-10T17:34:00.608Z,74.00
2017-12-10T17:36:28.753Z,73.90
2017-12-10T17:38:58.758Z,73.70
2017-12-10T17:41:26.904Z,73.40
2017-12-10T17:43:55.851Z,72.30
2017-12-10T17:46:24.021Z,72.30
2017-12-10T17:48:52.274Z,72.50
2017-12-10T17:51:20.421Z,73.60
2017-12-10T17:53:49.302Z,73.10
2017-12-10T17:56:17.420Z,72.80
2017-12-10T17:58:45.578Z,72.70
2017-12-10T18:01:13.688Z,73.40
2017-12-10T18:03:42.037Z,72.60
2017-12-10T18:06:10.179Z,72.80
2017-12-10T18:08:39.065Z,72.50
2017-12-10T18:11:07.990Z,71.30
2017-12-10T18:13:36.877Z,71.30
2017-12-10T18:16:05.045Z,72.20
2017-12-10T18:18:33.200Z,71.80
2017-12-10T18:21:02.125Z,72.70
2017-12-10T18:23:30.272Z,71.80
2017-12-10T18:25:59.189Z,71.70
2017-12-10T18:28:27.313Z,71.60
2017-12-10T18:30:55.535Z,71.20
2017-12-10T18:33:24.442Z,69.50
2017-12-10T18:35:52.568Z,70.20
2017-12-10T18:38:21.486Z,69.30
2017-12-10T18:40:49.662Z,69.00
2017-12-10T18:43:17.790Z,69.50
2017-12-10T18:45:46.046Z,70.40
2017-12-10T18:48:14.228Z,69.70
2017-12-10T18:50:42.350Z,69.70
2017-12-10T18:53:10.496Z,70.00
2017-12-10T18:55:38.712Z,71.50
2017-12-10T18:58:06.832Z,70.20
2017-12-10T19:00:34.985Z,69.80
2017-12-10T19:03:03.109Z,69.60
2017-12-10T19:05:32.001Z,69.30
2017-12-10T19:08:00.947Z,70.00
2017-12-10T19:10:29.103Z,69.60
2017-12-10T19:12:57.294Z,69.70
2017-12-10T19:15:25.474Z,69.60
2017-12-10T19:17:53.638Z,69.80
2017-12-10T19:20:21.786Z,69.20
2017-12-10T19:22:49.941Z,68.80
2017-12-10T19:25:18.831Z,69.20
2017-12-10T19:27:47.717Z,68.70
2017-12-10T19:30:16.646Z,69.00
2017-12-10T19:32:44.796Z,68.30
2017-12-10T19:35:12.958Z,68.60
2017-12-10T19:37:41.913Z,69.80
2017-12-10T19:40:10.104Z,69.00
2017-12-10T19:42:38.327Z,68.50
2017-12-10T19:45:06.468Z,68.20
2017-12-10T19:47:35.445Z,67.60
2017-12-10T19:50:03.564Z,67.70
2017-12-10T19:52:31.712Z,68.10
2017-12-10T19:55:00.596Z,67.10
2017-12-10T19:57:29.516Z,65.60
2017-12-10T19:59:57.679Z,67.00
2017-12-10T20:02:25.870Z,66.20
2017-12-10T20:04:54.939Z,65.80
2017-12-10T20:07:23.856Z,65.10
2017-12-10T20:09:52.797Z,64.70
2017-12-10T20:12:20.968Z,65.10
2017-12-10T20:14:49.975Z,64.60
2017-12-10T20:17:18.089Z,64.60
2017-12-10T20:19:46.386Z,64.40
2017-12-10T20:22:14.584Z,63.90
2017-12-10T20:24:42.706Z,63.50
2017-12-10T20:27:10.836Z,63.30
2017-12-10T20:29:39.025Z,63.30
2017-12-10T20:32:07.177Z,62.50
2017-12-10T20:34:35.357Z,62.50
2017-12-10T20:37:03.562Z,62.70
2017-12-10T20:39:32.497Z,62.50
2017-12-10T20:42:00.671Z,62.80
2017-12-10T20:44:29.900Z,62.10
2017-12-10T20:46:58.033Z,62.60
2017-12-10T20:49:26.153Z,62.50
2017-12-10T20:51:54.431Z,61.00
2017-12-10T20:54:22.639Z,60.70
2017-12-10T20:56:51.493Z,60.70
2017-12-10T20:59:19.709Z,60.60
2017-12-10T21:01:47.804Z,59.80
2017-12-10T21:04:15.928Z,60.50
2017-12-10T21:06:44.841Z,60.60
2017-12-10T21:09:12.951Z,61.30
2017-12-10T21:11:41.062Z,60.30
2017-12-10T21:14:09.978Z,60.60
2017-12-10T21:16:39.033Z,60.60
2017-12-10T21:19:07.147Z,61.00
2017-12-10T21:21:35.285Z,61.50
2017-12-10T21:24:03.427Z,61.30
2017-12-10T21:26:31.529Z,64.40
2017-12-10T21:28:59.705Z,65.70
2017-12-10T21:31:27.847Z,67.90
2017-12-10T21:33:55.990Z,71.80
2017-12-10T21:36:24.197Z,74.10
2017-12-10T21:38:52.318Z,76.40
2017-12-10T21:41:21.197Z,77.50
2017-12-10T21:43:50.892Z,77.70
2017-12-10T21:46:19.013Z,78.50
2017-12-10T21:48:47.125Z,79.10
2017-12-10T21:51:15.288Z,80.50
2017-12-10T21:53:43.397Z,78.80
2017-12-10T21:56:11.509Z,80.10
2017-12-10T21:58:39.644Z,78.10
2017-12-10T22:01:07.770Z,77.90
2017-12-10T22:03:35.901Z,79.40
2017-12-10T22:06:04.844Z,76.50
2017-12-10T22:08:32.951Z,75.90
2017-12-10T22:11:01.072Z,74.00
2017-12-10T22:13:29.223Z,74.40
2017-12-10T22:15:58.102Z,73.50
2017-12-10T22:18:26.992Z,73.30
2017-12-10T22:20:55.928Z,72.80
2017-12-10T22:23:24.088Z,71.60
2017-12-10T22:25:52.196Z,73.10
2017-12-10T22:28:20.337Z,72.10
2017-12-10T22:30:48.469Z,70.40
2017-12-10T22:33:17.368Z,71.40
2017-12-10T22:35:46.277Z,71.80
2017-12-10T22:38:14.384Z,71.60
2017-12-10T22:40:42.559Z,71.20
2017-12-10T22:43:10.662Z,70.60
2017-12-10T22:45:38.770Z,71.60
2017-12-10T22:48:06.889Z,71.20
2017-12-10T22:50:35.016Z,71.50
2017-12-10T22:53:03.134Z,71.30
2017-12-10T22:55:31.242Z,70.90
2017-12-10T22:58:00.144Z,71.30
2017-12-10T23:00:29.024Z,70.70
2017-12-10T23:02:57.916Z,70.60
2017-12-10T23:05:26.825Z,69.80
2017-12-10T23:07:54.955Z,69.80
2017-12-10T23:10:23.928Z,70.30
2017-12-10T23:12:52.045Z,70.20
2017-12-10T23:15:20.934Z,70.90
2017-12-10T23:17:49.817Z,70.00
2017-12-10T23:20:25.805Z,70.30
2017-12-10T23:22:54.677Z,70.70
2017-12-10T23:25:23.581Z,70.20
2017-12-10T23:27:51.709Z,70.30
2017-12-10T23:30:19.816Z,71.20
2017-12-10T23:32:48.688Z,70.70
2017-12-10T23:35:16.827Z,70.80
2017-12-10T23:37:44.940Z,70.90
2017-12-10T23:40:13.825Z,71.20
2017-12-10T23:42:41.972Z,70.90
2017-12-10T23:45:10.104Z,70.80
2017-12-10T23:47:38.973Z,71.10
2017-12-10T23:50:07.884Z,70.90
2017-12-10T23:52:36.758Z,71.10
2017-12-10T23:55:05.641Z,71.10
2017-12-10T23:57:33.785Z,70.90
